createdAt,value
2018-10-01T00:01:06.347Z,646
2018-10-01T00:02:13.576Z,644
2018-10-01T00:03:20.902Z,646
2018-10-01T00:04:27.966Z,646
2018-10-01T00:05:35.186Z,644
2018-10-01T00:06:42.407Z,645
2018-10-01T00:07:49.634Z,645
2018-10-01T00:08:57.051Z,645
2018-10-01T00:10:04.256Z,646
2018-10-01T00:11:11.476Z,645
2018-10-01T00:12:18.686Z,645
2018-10-01T00:13:25.334Z,644
2018-10-01T00:14:32.269Z,645
2018-10-01T00:15:39.483Z,645
2018-10-01T00:16:46.698Z,645
2018-10-01T00:17:54.151Z,646
2018-10-01T00:19:01.363Z,645
2018-10-01T00:20:08.584Z,647
2018-10-01T00:21:15.810Z,647
2018-10-01T00:22:22.745Z,649
2018-10-01T00:23:29.957Z,648
2018-10-01T00:24:37.189Z,648
2018-10-01T00:25:44.406Z,649
2018-10-01T00:26:51.624Z,648
2018-10-01T00:27:58.846Z,650
2018-10-01T00:29:05.796Z,650
2018-10-01T00:30:13.005Z,649
2018-10-01T00:31:20.217Z,649
2018-10-01T00:32:27.432Z,651
2018-10-01T00:33:34.386Z,652
2018-10-01T00:34:41.601Z,653
2018-10-01T00:35:48.815Z,653
2018-10-01T00:36:56.041Z,654
2018-10-01T00:38:03.255Z,654
2018-10-01T00:39:10.462Z,654
2018-10-01T00:40:17.793Z,654
2018-10-01T00:41:25.080Z,653
2018-10-01T00:42:32.295Z,652
2018-10-01T00:43:39.515Z,652
2018-10-01T00:44:46.729Z,651
2018-10-01T00:45:53.948Z,651
2018-10-01T00:47:01.384Z,652
2018-10-01T00:48:23.243Z,653
2018-10-01T00:49:30.460Z,651
2018-10-01T00:50:37.405Z,652
2018-10-01T00:51:44.618Z,652
2018-10-01T00:52:51.850Z,653
2018-10-01T00:53:59.070Z,652
2018-10-01T00:55:06.287Z,651
2018-10-01T00:56:13.501Z,649
2018-10-01T00:57:20.707Z,649
2018-10-01T00:58:27.917Z,647
2018-10-01T00:59:35.138Z,646
2018-10-01T01:00:42.096Z,646
2018-10-01T01:01:49.328Z,645
2018-10-01T01:02:56.253Z,644
2018-10-01T01:04:03.475Z,645
2018-10-01T01:05:10.691Z,646
2018-10-01T01:06:17.896Z,646
2018-10-01T01:07:24.833Z,646
2018-10-01T01:08:32.059Z,647
2018-10-01T01:09:38.987Z,647
2018-10-01T01:10:46.217Z,647
2018-10-01T01:11:53.178Z,646
2018-10-01T01:13:00.418Z,646
2018-10-01T01:14:07.682Z,647
2018-10-01T01:15:14.909Z,646
2018-10-01T01:16:22.128Z,645
2018-10-01T01:17:29.347Z,645
2018-10-01T01:18:36.548Z,645
2018-10-01T01:19:43.757Z,646
2018-10-01T01:20:50.964Z,644
2018-10-01T01:21:58.178Z,645
2018-10-01T01:23:05.399Z,645
2018-10-01T01:24:12.342Z,645
2018-10-01T01:25:19.560Z,644
2018-10-01T01:26:26.504Z,643
2018-10-01T01:27:33.738Z,643
2018-10-01T01:28:40.948Z,643
2018-10-01T01:29:48.158Z,645
2018-10-01T01:30:55.372Z,646
2018-10-01T01:32:02.309Z,645
2018-10-01T01:33:09.539Z,647
2018-10-01T01:34:16.753Z,647
2018-10-01T01:35:23.965Z,648
2018-10-01T01:36:31.194Z,647
2018-10-01T01:37:38.437Z,649
2018-10-01T01:38:45.658Z,648
2018-10-01T01:39:52.883Z,649
2018-10-01T01:41:00.104Z,650
2018-10-01T01:42:07.328Z,649
2018-10-01T01:43:14.539Z,649
2018-10-01T01:44:21.477Z,649
2018-10-01T01:45:28.685Z,648
2018-10-01T01:46:35.899Z,646
2018-10-01T01:47:43.112Z,647
2018-10-01T01:48:50.332Z,649
2018-10-01T01:49:57.543Z,648
2018-10-01T01:51:04.785Z,648
2018-10-01T01:52:12.001Z,647
2018-10-01T01:53:19.214Z,648
2018-10-01T01:54:26.475Z,647
2018-10-01T01:55:33.714Z,647
2018-10-01T01:56:40.928Z,647
2018-10-01T01:57:48.145Z,647
2018-10-01T01:58:55.419Z,647
2018-10-01T02:00:02.632Z,647
2018-10-01T02:01:09.851Z,648
2018-10-01T02:02:17.060Z,647
2018-10-01T02:03:24.272Z,647
2018-10-01T02:04:31.487Z,648
2018-10-01T02:05:38.699Z,646
2018-10-01T02:06:45.914Z,647
2018-10-01T02:07:53.130Z,647
2018-10-01T02:09:00.353Z,646
2018-10-01T02:10:21.962Z,647
2018-10-01T02:11:30.137Z,649
2018-10-01T02:12:37.365Z,649
2018-10-01T02:13:44.585Z,649
2018-10-01T02:14:51.806Z,650
2018-10-01T02:15:59.040Z,650
2018-10-01T02:17:06.268Z,649
2018-10-01T02:18:13.501Z,649
2018-10-01T02:19:20.709Z,648
2018-10-01T02:20:27.928Z,649
2018-10-01T02:21:35.158Z,650
2018-10-01T02:22:42.398Z,650
2018-10-01T02:23:49.339Z,649
2018-10-01T02:24:56.556Z,649
2018-10-01T02:26:03.763Z,649
2018-10-01T02:27:11.212Z,649
2018-10-01T02:28:18.432Z,649
2018-10-01T02:29:25.878Z,648
2018-10-01T02:30:33.117Z,648
2018-10-01T02:31:40.333Z,648
2018-10-01T02:32:47.569Z,647
2018-10-01T02:33:54.799Z,648
2018-10-01T02:35:02.024Z,648
2018-10-01T02:36:09.007Z,647
2018-10-01T02:37:16.229Z,645
2018-10-01T02:38:23.459Z,645
2018-10-01T02:39:30.676Z,645
2018-10-01T02:40:37.924Z,643
2018-10-01T02:41:45.149Z,644
2018-10-01T02:42:52.597Z,643
2018-10-01T02:43:59.546Z,643
2018-10-01T02:45:06.751Z,643
2018-10-01T02:46:13.982Z,642
2018-10-01T02:47:21.199Z,643
2018-10-01T02:48:28.421Z,642
2018-10-01T02:49:35.670Z,642
2018-10-01T02:50:42.880Z,642
2018-10-01T02:51:50.339Z,642
2018-10-01T02:52:57.272Z,642
2018-10-01T02:54:04.725Z,641
2018-10-01T02:55:11.942Z,641
2018-10-01T02:56:19.153Z,642
2018-10-01T02:57:26.402Z,642
2018-10-01T02:58:33.344Z,642
2018-10-01T02:59:40.568Z,642
2018-10-01T03:00:47.794Z,641
2018-10-01T03:01:55.016Z,642
2018-10-01T03:03:02.463Z,643
2018-10-01T03:04:09.676Z,644
2018-10-01T03:05:17.124Z,644
2018-10-01T03:06:24.077Z,643
2018-10-01T03:07:31.310Z,643
2018-10-01T03:08:38.543Z,643
2018-10-01T03:09:45.788Z,643
2018-10-01T03:10:52.471Z,643
2018-10-01T03:11:59.692Z,643
2018-10-01T03:13:06.923Z,642
2018-10-01T03:14:14.166Z,642
2018-10-01T03:15:21.389Z,642
2018-10-01T03:16:28.607Z,643
2018-10-01T03:17:35.545Z,643
2018-10-01T03:18:42.993Z,641
2018-10-01T03:19:49.921Z,641
2018-10-01T03:20:57.357Z,641
2018-10-01T03:22:04.297Z,642
2018-10-01T03:23:11.755Z,640
2018-10-01T03:24:18.990Z,641
2018-10-01T03:25:26.211Z,640
2018-10-01T03:26:33.441Z,641
2018-10-01T03:27:40.692Z,641
2018-10-01T03:28:47.898Z,642
2018-10-01T03:29:55.347Z,641
2018-10-01T03:31:02.562Z,641
2018-10-01T03:32:10.012Z,641
2018-10-01T03:33:17.226Z,641
2018-10-01T03:34:24.458Z,641
2018-10-01T03:35:31.675Z,642
2018-10-01T03:36:38.907Z,641
2018-10-01T03:37:46.140Z,642
2018-10-01T03:38:53.090Z,641
2018-10-01T03:40:00.440Z,642
2018-10-01T03:41:07.374Z,641
2018-10-01T03:42:14.617Z,641
2018-10-01T03:43:21.790Z,641
2018-10-01T03:44:28.784Z,642
2018-10-01T03:45:36.008Z,642
2018-10-01T03:46:43.220Z,642
2018-10-01T03:47:50.478Z,642
2018-10-01T03:48:57.691Z,642
2018-10-01T03:50:05.013Z,641
2018-10-01T03:51:12.226Z,642
2018-10-01T03:52:19.475Z,642
2018-10-01T03:53:26.702Z,642
2018-10-01T03:54:33.909Z,641
2018-10-01T03:55:41.125Z,642
2018-10-01T03:56:48.341Z,642
2018-10-01T03:57:55.569Z,642
2018-10-01T03:59:03.033Z,643
2018-10-01T04:00:10.251Z,643
2018-10-01T04:01:17.492Z,642
2018-10-01T04:02:39.073Z,645
2018-10-01T04:03:46.022Z,644
2018-10-01T04:04:53.240Z,645
2018-10-01T04:06:00.452Z,645
2018-10-01T04:07:07.676Z,645
2018-10-01T04:08:15.112Z,645
2018-10-01T04:09:22.059Z,645
2018-10-01T04:10:29.269Z,645
2018-10-01T04:11:36.484Z,643
2018-10-01T04:12:43.432Z,644
2018-10-01T04:13:50.674Z,644
2018-10-01T04:14:58.191Z,644
2018-10-01T04:16:05.413Z,643
2018-10-01T04:17:12.915Z,643
2018-10-01T04:18:20.136Z,644
2018-10-01T04:19:27.345Z,644
2018-10-01T04:20:34.557Z,645
2018-10-01T04:21:41.789Z,644
2018-10-01T04:22:49.143Z,643
2018-10-01T04:23:56.479Z,646
2018-10-01T04:25:03.700Z,644
2018-10-01T04:26:10.886Z,644
2018-10-01T04:27:18.092Z,644
2018-10-01T04:28:25.655Z,644
2018-10-01T04:29:32.883Z,643
2018-10-01T04:30:40.095Z,643
2018-10-01T04:31:47.345Z,643
2018-10-01T04:32:54.276Z,643
2018-10-01T04:34:01.510Z,642
2018-10-01T04:35:08.459Z,640
2018-10-01T04:36:15.672Z,642
2018-10-01T04:37:23.135Z,641
2018-10-01T04:38:30.341Z,641
2018-10-01T04:39:37.771Z,642
2018-10-01T04:40:45.324Z,643
2018-10-01T04:41:52.390Z,639
2018-10-01T04:42:59.597Z,641
2018-10-01T04:44:06.821Z,641
2018-10-01T04:45:14.033Z,641
2018-10-01T04:46:21.271Z,642
2018-10-01T04:47:28.497Z,641
2018-10-01T04:48:35.387Z,644
2018-10-01T04:49:42.751Z,644
2018-10-01T04:50:49.976Z,643
2018-10-01T04:51:56.941Z,643
2018-10-01T04:53:04.138Z,645
2018-10-01T04:54:11.071Z,644
2018-10-01T04:55:18.393Z,645
2018-10-01T04:56:25.062Z,645
2018-10-01T04:57:32.272Z,645
2018-10-01T04:58:39.707Z,645
2018-10-01T04:59:47.276Z,645
2018-10-01T05:00:54.506Z,644
2018-10-01T05:02:01.740Z,645
2018-10-01T05:03:08.680Z,644
2018-10-01T05:04:15.862Z,643
2018-10-01T05:05:22.531Z,644
2018-10-01T05:06:29.964Z,643
2018-10-01T05:07:37.180Z,644
2018-10-01T05:08:44.412Z,643
2018-10-01T05:09:51.890Z,642
2018-10-01T05:10:59.123Z,643
2018-10-01T05:12:06.346Z,643
2018-10-01T05:13:13.561Z,642
2018-10-01T05:14:20.763Z,642
2018-10-01T05:15:27.999Z,642
2018-10-01T05:16:34.923Z,641
2018-10-01T05:17:41.858Z,641
2018-10-01T05:18:49.098Z,641
2018-10-01T05:19:56.243Z,642
2018-10-01T05:21:03.464Z,643
2018-10-01T05:22:10.619Z,644
2018-10-01T05:23:17.833Z,645
2018-10-01T05:24:25.013Z,645
2018-10-01T05:25:31.846Z,645
2018-10-01T05:26:38.788Z,646
2018-10-01T05:27:45.740Z,646
2018-10-01T05:28:52.982Z,645
2018-10-01T05:30:00.206Z,645
2018-10-01T05:31:07.107Z,645
2018-10-01T05:32:14.038Z,646
2018-10-01T05:33:21.489Z,645
2018-10-01T05:34:28.437Z,644
2018-10-01T05:35:35.893Z,646
2018-10-01T05:36:43.210Z,646
2018-10-01T05:37:50.283Z,645
2018-10-01T05:38:57.366Z,644
2018-10-01T05:40:04.579Z,643
2018-10-01T05:41:11.800Z,642
2018-10-01T05:42:19.031Z,643
2018-10-01T05:43:25.959Z,642
2018-10-01T05:44:33.425Z,642
2018-10-01T05:45:40.634Z,641
2018-10-01T05:46:47.650Z,641
2018-10-01T05:47:54.861Z,642
2018-10-01T05:49:01.897Z,641
2018-10-01T05:50:09.265Z,641
2018-10-01T05:51:16.500Z,642
2018-10-01T05:52:23.898Z,641
2018-10-01T05:53:31.208Z,641
2018-10-01T05:54:38.424Z,641
2018-10-01T05:55:45.656Z,641
2018-10-01T05:56:52.873Z,640
2018-10-01T05:57:59.935Z,640
2018-10-01T05:59:06.883Z,639
2018-10-01T06:00:14.332Z,638
2018-10-01T06:01:21.267Z,638
2018-10-01T06:02:28.729Z,638
2018-10-01T06:03:35.947Z,638
2018-10-01T06:04:43.944Z,638
2018-10-01T06:05:51.232Z,638
2018-10-01T06:06:58.444Z,637
2018-10-01T06:08:05.676Z,637
2018-10-01T06:09:12.882Z,636
2018-10-01T06:10:20.695Z,636
2018-10-01T06:11:27.927Z,635
2018-10-01T06:12:35.130Z,635
2018-10-01T06:13:42.347Z,634
2018-10-01T06:14:49.551Z,634
2018-10-01T06:15:56.770Z,633
2018-10-01T06:17:03.981Z,633
2018-10-01T06:18:10.909Z,631
2018-10-01T06:19:18.121Z,631
2018-10-01T06:20:25.052Z,631
2018-10-01T06:21:32.278Z,630
2018-10-01T06:22:39.509Z,630
2018-10-01T06:23:46.435Z,631
2018-10-01T06:24:53.103Z,630
2018-10-01T06:26:00.324Z,630
2018-10-01T06:27:07.260Z,629
2018-10-01T06:28:14.486Z,628
2018-10-01T06:29:21.431Z,628
2018-10-01T06:30:28.640Z,628
2018-10-01T06:31:35.585Z,628
2018-10-01T06:32:42.790Z,628
2018-10-01T06:33:50.004Z,627
2018-10-01T06:34:56.926Z,628
2018-10-01T06:36:03.915Z,627
2018-10-01T06:37:10.625Z,627
2018-10-01T06:38:17.576Z,627
2018-10-01T06:39:24.884Z,627
2018-10-01T06:40:31.912Z,628
2018-10-01T06:41:39.355Z,628
2018-10-01T06:42:46.597Z,628
2018-10-01T06:43:53.543Z,629
2018-10-01T06:45:00.763Z,629
2018-10-01T06:46:07.976Z,627
2018-10-01T06:47:15.219Z,627
2018-10-01T06:48:21.619Z,627
2018-10-01T06:49:28.837Z,627
2018-10-01T06:50:36.060Z,628
2018-10-01T06:51:43.284Z,627
2018-10-01T06:52:50.503Z,628
2018-10-01T06:53:57.740Z,629
2018-10-01T06:55:04.423Z,627
2018-10-01T06:56:11.080Z,626
2018-10-01T06:57:18.014Z,627
2018-10-01T06:58:24.409Z,625
2018-10-01T06:59:31.082Z,625
2018-10-01T07:00:38.081Z,624
2018-10-01T07:01:44.773Z,623
2018-10-01T07:02:51.710Z,622
2018-10-01T07:03:59.129Z,623
2018-10-01T07:05:06.399Z,623
2018-10-01T07:06:13.368Z,624
2018-10-01T07:07:20.588Z,624
2018-10-01T07:08:27.802Z,624
2018-10-01T07:09:35.258Z,624
2018-10-01T07:10:42.219Z,623
2018-10-01T07:11:49.448Z,623
2018-10-01T07:12:56.702Z,623
2018-10-01T07:14:03.721Z,623
2018-10-01T07:15:10.663Z,622
2018-10-01T07:16:18.188Z,622
2018-10-01T07:17:26.229Z,622
2018-10-01T07:18:33.690Z,622
2018-10-01T07:19:40.925Z,622
2018-10-01T22:00:06.425Z,582
2018-10-01T22:01:13.653Z,577
2018-10-01T22:02:20.866Z,577
2018-10-01T22:03:28.081Z,576
2018-10-01T22:04:35.017Z,576
2018-10-01T22:05:42.239Z,575
2018-10-01T22:06:49.453Z,576
2018-10-01T22:07:56.680Z,575
2018-10-01T22:09:03.878Z,575
2018-10-01T22:10:10.810Z,574
2018-10-01T22:11:18.026Z,574
2018-10-01T22:12:25.252Z,575
2018-10-01T22:13:32.478Z,574
2018-10-01T22:14:39.711Z,573
2018-10-01T22:15:46.931Z,571
2018-10-01T22:16:54.155Z,571
2018-10-01T22:18:01.096Z,571
2018-10-01T22:19:08.039Z,569
2018-10-01T22:20:15.269Z,569
2018-10-01T22:21:22.479Z,570
2018-10-01T22:22:29.691Z,570
2018-10-01T22:23:36.921Z,569
2018-10-01T22:24:44.137Z,569
2018-10-01T22:25:51.360Z,569
2018-10-01T22:26:58.578Z,569
2018-10-01T22:28:05.799Z,570
2018-10-01T22:29:12.736Z,570
2018-10-01T22:30:19.954Z,570
2018-10-01T22:31:41.808Z,569
2018-10-01T22:32:49.021Z,569
2018-10-01T22:33:56.233Z,569
2018-10-01T22:35:03.458Z,568
2018-10-01T22:36:10.660Z,568
2018-10-01T22:37:17.884Z,569
2018-10-01T22:38:25.113Z,569
2018-10-01T22:39:32.330Z,568
2018-10-01T22:40:39.532Z,569
2018-10-01T22:41:46.759Z,569
2018-10-01T22:42:53.967Z,569
2018-10-01T22:44:01.192Z,569
2018-10-01T22:45:08.412Z,569
2018-10-01T22:46:15.626Z,571
2018-10-01T22:47:22.834Z,571
2018-10-01T22:48:30.049Z,571
2018-10-01T22:49:36.978Z,570
2018-10-01T22:50:44.191Z,570
2018-10-01T22:51:51.399Z,570
2018-10-01T22:52:58.606Z,570
2018-10-01T22:54:05.282Z,569
2018-10-01T22:55:12.491Z,569
2018-10-01T22:56:19.702Z,570
2018-10-01T22:57:26.908Z,571
2018-10-01T22:58:34.117Z,571
2018-10-01T22:59:41.327Z,571
2018-10-01T23:00:48.545Z,572
2018-10-01T23:01:55.749Z,573
2018-10-01T23:03:03.184Z,574
2018-10-01T23:04:10.376Z,576
2018-10-01T23:05:17.589Z,576
2018-10-01T23:06:24.804Z,576
2018-10-01T23:07:32.008Z,577
2018-10-01T23:08:38.947Z,576
2018-10-01T23:09:46.155Z,577
2018-10-01T23:10:53.361Z,577
2018-10-01T23:12:00.573Z,576
2018-10-01T23:13:07.775Z,575
2018-10-01T23:14:14.977Z,575
2018-10-01T23:15:22.181Z,575
2018-10-01T23:16:29.382Z,573
2018-10-01T23:17:36.587Z,573
2018-10-01T23:18:43.806Z,571
2018-10-01T23:19:51.032Z,571
2018-10-01T23:20:58.240Z,570
2018-10-01T23:22:05.469Z,570
2018-10-01T23:23:12.685Z,570
2018-10-01T23:24:19.903Z,570
2018-10-01T23:25:27.118Z,570
2018-10-01T23:26:34.332Z,570
2018-10-01T23:27:41.550Z,569
2018-10-01T23:28:48.483Z,570
2018-10-01T23:29:55.701Z,569
2018-10-01T23:31:02.891Z,568
2018-10-01T23:32:10.190Z,569
2018-10-01T23:33:17.437Z,569
2018-10-01T23:34:24.651Z,569
2018-10-01T23:35:31.885Z,568
2018-10-01T23:36:39.088Z,567
2018-10-01T23:37:46.308Z,567
2018-10-01T23:38:53.515Z,567
2018-10-01T23:40:00.464Z,566
2018-10-01T23:41:07.668Z,566
2018-10-01T23:42:14.878Z,567
2018-10-01T23:43:22.087Z,566
2018-10-01T23:44:29.292Z,567
2018-10-01T23:45:36.497Z,567
2018-10-01T23:46:43.433Z,566
2018-10-01T23:47:50.635Z,566
2018-10-01T23:48:57.854Z,565
2018-10-01T23:50:05.070Z,565
2018-10-01T23:51:12.004Z,564
2018-10-01T23:52:18.946Z,565
2018-10-01T23:53:26.158Z,565
2018-10-01T23:54:33.101Z,564
2018-10-01T23:55:40.311Z,564
2018-10-01T23:56:47.512Z,564
2018-10-01T23:57:54.743Z,564
2018-10-01T23:59:01.692Z,565
